<?xml version="1.0" encoding="utf-8"?>
<gpx xmlns:xsi="http://www.w3.org/2001/XMLSchema-instance" xmlns:xsd="http://www.w3.org/2001/XMLSchema" version="1.1" creator="Shapelink.com" xmlns="http://www.topografix.com/GPX/1/1" xmlns:gpxtpx="http://www.garmin.com/xmlschemas/TrackPointExtension/v1">
  <metadata>
    <name>Löpning 11.01 km, 2019-04-17</name>
    <desc></desc>
    <author><name>Marian Moron</name></author> 
    <time>2019-04-17T22:09:30Z</time>
  </metadata>
  <trk>
    <name>Löpning 11.01 km, 2019-04-17</name>
    <trkseg>
      <trkpt lat="51.229873649989" lon="4.458463032364">
        <ele>28.8</ele>
        <time>2019-04-17T22:09:30Z</time>
      </trkpt>
      <trkpt lat="51.229952607487" lon="4.458761344185">
        <ele>28.8</ele>
        <time>2019-04-17T22:09:37Z</time>
      </trkpt>
      <trkpt lat="51.230130555224" lon="4.458812222318">
        <ele>27.2</ele>
        <time>2019-04-17T22:09:45Z</time>
      </trkpt>
      <trkpt lat="51.230308251504" lon="4.458758159063">
        <ele>22</ele>
        <time>2019-04-17T22:09:52Z</time>
      </trkpt>
      <trkpt lat="51.230499275005" lon="4.458732929544">
        <ele>15.4</ele>
        <time>2019-04-17T22:09:59Z</time>
      </trkpt>
      <trkpt lat="51.230687783936" lon="4.458717590667">
        <ele>10.4</ele>
        <time>2019-04-17T22:10:06Z</time>
      </trkpt>
      <trkpt lat="51.230876963419" lon="4.45862765288">
        <ele>8.2</ele>
        <time>2019-04-17T22:10:14Z</time>
      </trkpt>
      <trkpt lat="51.231067903101" lon="4.458548276287">
        <ele>5.6</ele>
        <time>2019-04-17T22:10:22Z</time>
      </trkpt>
      <trkpt lat="51.231242665716" lon="4.458472000997">
        <ele>3.2</ele>
        <time>2019-04-17T22:10:29Z</time>
      </trkpt>
      <trkpt lat="51.231430671733" lon="4.458388433454">
        <ele>3.2</ele>
        <time>2019-04-17T22:10:37Z</time>
      </trkpt>
      <trkpt lat="51.231611720773" lon="4.45827728946">
        <ele>1.8</ele>
        <time>2019-04-17T22:10:45Z</time>
      </trkpt>
      <trkpt lat="51.231786231931" lon="4.458131192943">
        <ele>0.8</ele>
        <time>2019-04-17T22:10:53Z</time>
      </trkpt>
      <trkpt lat="51.231946912954" lon="4.457991550489">
        <ele>0</ele>
        <time>2019-04-17T22:11:01Z</time>
      </trkpt>
      <trkpt lat="51.232113042212" lon="4.457856853356">
        <ele>0</ele>
        <time>2019-04-17T22:11:09Z</time>
      </trkpt>
      <trkpt lat="51.232280596393" lon="4.457753755986">
        <ele>0</ele>
        <time>2019-04-17T22:11:17Z</time>
      </trkpt>
      <trkpt lat="51.232371456189" lon="4.457719222558">
        <ele>0.2</ele>
        <time>2019-04-17T22:11:21Z</time>
      </trkpt>
      <trkpt lat="51.232470111152" lon="4.457967075341">
        <ele>2.6</ele>
        <time>2019-04-17T22:11:28Z</time>
      </trkpt>
      <trkpt lat="51.232563066423" lon="4.458246024973">
        <ele>4.6</ele>
        <time>2019-04-17T22:11:35Z</time>
      </trkpt>
      <trkpt lat="51.232643113568" lon="4.458540984034">
        <ele>5.4</ele>
        <time>2019-04-17T22:11:43Z</time>
      </trkpt>
      <trkpt lat="51.232707235103" lon="4.458843319167">
        <ele>6.6</ele>
        <time>2019-04-17T22:11:51Z</time>
      </trkpt>
      <trkpt lat="51.23276615986" lon="4.45914900706">
        <ele>6.8</ele>
        <time>2019-04-17T22:11:59Z</time>
      </trkpt>
      <trkpt lat="51.232827850644" lon="4.459442205922">
        <ele>6.6</ele>
        <time>2019-04-17T22:12:07Z</time>
      </trkpt>
      <trkpt lat="51.232898007147" lon="4.459749654014">
        <ele>6.8</ele>
        <time>2019-04-17T22:12:15Z</time>
      </trkpt>
      <trkpt lat="51.232961709587" lon="4.460046876188">
        <ele>7.4</ele>
        <time>2019-04-17T22:12:23Z</time>
      </trkpt>
      <trkpt lat="51.233022226905" lon="4.46033839867">
        <ele>7.4</ele>
        <time>2019-04-17T22:12:31Z</time>
      </trkpt>
      <trkpt lat="51.233110488312" lon="4.460637213405">
        <ele>10.2</ele>
        <time>2019-04-17T22:12:39Z</time>
      </trkpt>
      <trkpt lat="51.233160192979" lon="4.460917504141">
        <ele>11.2</ele>
        <time>2019-04-17T22:12:46Z</time>
      </trkpt>
      <trkpt lat="51.233218111908" lon="4.461211457374">
        <ele>13.8</ele>
        <time>2019-04-17T22:12:53Z</time>
      </trkpt>
      <trkpt lat="51.233272594258" lon="4.461520917122">
        <ele>17.8</ele>
        <time>2019-04-17T22:13:01Z</time>
      </trkpt>
      <trkpt lat="51.233340068553" lon="4.461828532852">
        <ele>20.8</ele>
        <time>2019-04-17T22:13:09Z</time>
      </trkpt>
      <trkpt lat="51.233419696603" lon="4.462098849127">
        <ele>26.2</ele>
        <time>2019-04-17T22:13:16Z</time>
      </trkpt>
      <trkpt lat="51.233420702431" lon="4.462432532566">
        <ele>27.6</ele>
        <time>2019-04-17T22:13:24Z</time>
      </trkpt>
      <trkpt lat="51.233440651353" lon="4.462743920151">
        <ele>24.8</ele>
        <time>2019-04-17T22:13:32Z</time>
      </trkpt>
      <trkpt lat="51.233456912239" lon="4.463060755971">
        <ele>21.6</ele>
        <time>2019-04-17T22:13:40Z</time>
      </trkpt>
      <trkpt lat="51.233479375731" lon="4.463348003684">
        <ele>18.8</ele>
        <time>2019-04-17T22:13:47Z</time>
      </trkpt>
      <trkpt lat="51.23356076398" lon="4.463628629696">
        <ele>19.2</ele>
        <time>2019-04-17T22:13:55Z</time>
      </trkpt>
      <trkpt lat="51.233566715129" lon="4.463912524649">
        <ele>18.4</ele>
        <time>2019-04-17T22:14:02Z</time>
      </trkpt>
      <trkpt lat="51.233569900251" lon="4.464228019365">
        <ele>13.6</ele>
        <time>2019-04-17T22:14:10Z</time>
      </trkpt>
      <trkpt lat="51.233619940194" lon="4.464528426661">
        <ele>9</ele>
        <time>2019-04-17T22:14:18Z</time>
      </trkpt>
      <trkpt lat="51.233649947396" lon="4.464822212256">
        <ele>3.4</ele>
        <time>2019-04-17T22:14:26Z</time>
      </trkpt>
      <trkpt lat="51.233704597384" lon="4.465132426375">
        <ele>0</ele>
        <time>2019-04-17T22:14:34Z</time>
      </trkpt>
      <trkpt lat="51.233809622591" lon="4.465402994107">
        <ele>2.2</ele>
        <time>2019-04-17T22:14:42Z</time>
      </trkpt>
      <trkpt lat="51.233842731096" lon="4.465708179086">
        <ele>3.4</ele>
        <time>2019-04-17T22:14:50Z</time>
      </trkpt>
      <trkpt lat="51.233919090205" lon="4.465987212537">
        <ele>4</ele>
        <time>2019-04-17T22:14:58Z</time>
      </trkpt>
      <trkpt lat="51.233988324699" lon="4.466278399743">
        <ele>7.2</ele>
        <time>2019-04-17T22:15:06Z</time>
      </trkpt>
      <trkpt lat="51.23404942875" lon="4.466553242244">
        <ele>13.2</ele>
        <time>2019-04-17T22:15:13Z</time>
      </trkpt>
      <trkpt lat="51.234186556634" lon="4.467124552548">
        <ele>25.6</ele>
        <time>2019-04-17T22:15:28Z</time>
      </trkpt>
      <trkpt lat="51.234226789754" lon="4.467438119427">
        <ele>27.4</ele>
        <time>2019-04-17T22:15:36Z</time>
      </trkpt>
      <trkpt lat="51.234245229934" lon="4.46773123447">
        <ele>26.6</ele>
        <time>2019-04-17T22:15:43Z</time>
      </trkpt>
      <trkpt lat="51.234292084755" lon="4.468041532408">
        <ele>23</ele>
        <time>2019-04-17T22:15:51Z</time>
      </trkpt>
      <trkpt lat="51.234320247939" lon="4.468329450673">
        <ele>18.8</ele>
        <time>2019-04-17T22:15:58Z</time>
      </trkpt>
      <trkpt lat="51.234370539339" lon="4.468628181589">
        <ele>17.2</ele>
        <time>2019-04-17T22:16:06Z</time>
      </trkpt>
      <trkpt lat="51.234415633961" lon="4.468906544488">
        <ele>17.2</ele>
        <time>2019-04-17T22:16:13Z</time>
      </trkpt>
      <trkpt lat="51.234454525977" lon="4.469221201014">
        <ele>12.8</ele>
        <time>2019-04-17T22:16:21Z</time>
      </trkpt>
      <trkpt lat="51.234491825432" lon="4.469528732925">
        <ele>7.6</ele>
        <time>2019-04-17T22:16:29Z</time>
      </trkpt>
      <trkpt lat="51.234514372743" lon="4.469848083315">
        <ele>3.8</ele>
        <time>2019-04-17T22:16:37Z</time>
      </trkpt>
      <trkpt lat="51.234525939765" lon="4.470175312691">
        <ele>2.2</ele>
        <time>2019-04-17T22:16:45Z</time>
      </trkpt>
      <trkpt lat="51.23457245931" lon="4.470492064692">
        <ele>4</ele>
        <time>2019-04-17T22:16:53Z</time>
      </trkpt>
      <trkpt lat="51.234612943887" lon="4.470806050666">
        <ele>3.8</ele>
        <time>2019-04-17T22:17:01Z</time>
      </trkpt>
      <trkpt lat="51.234658206147" lon="4.471116097147">
        <ele>2.2</ele>
        <time>2019-04-17T22:17:09Z</time>
      </trkpt>
      <trkpt lat="51.234709671013" lon="4.471431508044">
        <ele>0.8</ele>
        <time>2019-04-17T22:17:17Z</time>
      </trkpt>
      <trkpt lat="51.234756609653" lon="4.471718588119">
        <ele>1.4</ele>
        <time>2019-04-17T22:17:24Z</time>
      </trkpt>
      <trkpt lat="51.234809164166" lon="4.47199845976">
        <ele>1.2</ele>
        <time>2019-04-17T22:17:31Z</time>
      </trkpt>
      <trkpt lat="51.234854845521" lon="4.472307500413">
        <ele>2.2</ele>
        <time>2019-04-17T22:17:39Z</time>
      </trkpt>
      <trkpt lat="51.234922655092" lon="4.472614194134">
        <ele>3.4</ele>
        <time>2019-04-17T22:17:47Z</time>
      </trkpt>
      <trkpt lat="51.234981412211" lon="4.472893562861">
        <ele>5</ele>
        <time>2019-04-17T22:17:54Z</time>
      </trkpt>
      <trkpt lat="51.235027847937" lon="4.47318366042">
        <ele>6.4</ele>
        <time>2019-04-17T22:18:01Z</time>
      </trkpt>
      <trkpt lat="51.235081073002" lon="4.473458335283">
        <ele>7.6</ele>
        <time>2019-04-17T22:18:08Z</time>
      </trkpt>
      <trkpt lat="51.235139830121" lon="4.473763771719">
        <ele>8.4</ele>
        <time>2019-04-17T22:18:16Z</time>
      </trkpt>
      <trkpt lat="51.235205376579" lon="4.474070213983">
        <ele>7.6</ele>
        <time>2019-04-17T22:18:24Z</time>
      </trkpt>
      <trkpt lat="51.235264133698" lon="4.474368777261">
        <ele>8.4</ele>
        <time>2019-04-17T22:18:32Z</time>
      </trkpt>
      <trkpt lat="51.235327836138" lon="4.474639512631">
        <ele>10.8</ele>
        <time>2019-04-17T22:18:39Z</time>
      </trkpt>
      <trkpt lat="51.235405117256" lon="4.474931789484">
        <ele>12.2</ele>
        <time>2019-04-17T22:18:47Z</time>
      </trkpt>
      <trkpt lat="51.235488517161" lon="4.475225155984">
        <ele>13.6</ele>
        <time>2019-04-17T22:18:55Z</time>
      </trkpt>
      <trkpt lat="51.235581137156" lon="4.475510978774">
        <ele>14.8</ele>
        <time>2019-04-17T22:19:03Z</time>
      </trkpt>
      <trkpt lat="51.235644923415" lon="4.475803339446">
        <ele>14.2</ele>
        <time>2019-04-17T22:19:11Z</time>
      </trkpt>
      <trkpt lat="51.235697394109" lon="4.476092095901">
        <ele>12.4</ele>
        <time>2019-04-17T22:19:19Z</time>
      </trkpt>
      <trkpt lat="51.23572832332" lon="4.476394347215">
        <ele>11.4</ele>
        <time>2019-04-17T22:19:27Z</time>
      </trkpt>
      <trkpt lat="51.235777860349" lon="4.476688971">
        <ele>12</ele>
        <time>2019-04-17T22:19:35Z</time>
      </trkpt>
      <trkpt lat="51.235834102898" lon="4.476990887038">
        <ele>11.2</ele>
        <time>2019-04-17T22:19:43Z</time>
      </trkpt>
      <trkpt lat="51.235887411782" lon="4.477280900778">
        <ele>12.6</ele>
        <time>2019-04-17T22:19:51Z</time>
      </trkpt>
      <trkpt lat="51.235960166674" lon="4.477581978626">
        <ele>13.6</ele>
        <time>2019-04-17T22:19:59Z</time>
      </trkpt>
      <trkpt lat="51.236030490815" lon="4.477866125036">
        <ele>13</ele>
        <time>2019-04-17T22:20:06Z</time>
      </trkpt>
      <trkpt lat="51.23609209778" lon="4.478132501818">
        <ele>14.2</ele>
        <time>2019-04-17T22:20:13Z</time>
      </trkpt>
      <trkpt lat="51.236153704745" lon="4.478415390943">
        <ele>15.8</ele>
        <time>2019-04-17T22:20:21Z</time>
      </trkpt>
      <trkpt lat="51.236163511568" lon="4.478733148772">
        <ele>12.8</ele>
        <time>2019-04-17T22:20:29Z</time>
      </trkpt>
      <trkpt lat="51.236146328673" lon="4.479056522474">
        <ele>9.8</ele>
        <time>2019-04-17T22:20:37Z</time>
      </trkpt>
      <trkpt lat="51.236151022537" lon="4.479346452395">
        <ele>9.6</ele>
        <time>2019-04-17T22:20:44Z</time>
      </trkpt>
      <trkpt lat="51.236132833814" lon="4.479642501103">
        <ele>6.6</ele>
        <time>2019-04-17T22:20:51Z</time>
      </trkpt>
      <trkpt lat="51.2361155671" lon="4.479938549811">
        <ele>4.2</ele>
        <time>2019-04-17T22:20:58Z</time>
      </trkpt>
      <trkpt lat="51.23610969977" lon="4.480231581035">
        <ele>2.6</ele>
        <time>2019-04-17T22:21:05Z</time>
      </trkpt>
      <trkpt lat="51.236089164115" lon="4.480518409653">
        <ele>2</ele>
        <time>2019-04-17T22:21:12Z</time>
      </trkpt>
      <trkpt lat="51.236063934596" lon="4.480995004487">
        <ele>0.6</ele>
        <time>2019-04-17T22:21:24Z</time>
      </trkpt>
      <trkpt lat="51.236052786669" lon="4.481284850589">
        <ele>0.8</ele>
        <time>2019-04-17T22:21:31Z</time>
      </trkpt>
      <trkpt lat="51.236043901855" lon="4.481609481576">
        <ele>2.2</ele>
        <time>2019-04-17T22:21:39Z</time>
      </trkpt>
      <trkpt lat="51.23603426267" lon="4.481919108962">
        <ele>2.8</ele>
        <time>2019-04-17T22:21:47Z</time>
      </trkpt>
      <trkpt lat="51.236028143883" lon="4.482217839878">
        <ele>3.6</ele>
        <time>2019-04-17T22:21:55Z</time>
      </trkpt>
      <trkpt lat="51.236033089204" lon="4.482539369562">
        <ele>4.4</ele>
        <time>2019-04-17T22:22:03Z</time>
      </trkpt>
      <trkpt lat="51.236046248787" lon="4.48286056397">
        <ele>4.6</ele>
        <time>2019-04-17T22:22:11Z</time>
      </trkpt>
      <trkpt lat="51.236055385058" lon="4.483183434758">
        <ele>6.2</ele>
        <time>2019-04-17T22:22:19Z</time>
      </trkpt>
      <trkpt lat="51.236060078922" lon="4.483494654705">
        <ele>6.4</ele>
        <time>2019-04-17T22:22:27Z</time>
      </trkpt>
      <trkpt lat="51.236070137202" lon="4.483782489151">
        <ele>8</ele>
        <time>2019-04-17T22:22:34Z</time>
      </trkpt>
      <trkpt lat="51.236079189654" lon="4.484074346909">
        <ele>8.8</ele>
        <time>2019-04-17T22:22:41Z</time>
      </trkpt>
      <trkpt lat="51.236072567953" lon="4.484376262947">
        <ele>6.4</ele>
        <time>2019-04-17T22:22:48Z</time>
      </trkpt>
      <trkpt lat="51.236022695648" lon="4.484674155673">
        <ele>7.4</ele>
        <time>2019-04-17T22:22:55Z</time>
      </trkpt>
      <trkpt lat="51.235989922419" lon="4.484986297629">
        <ele>9</ele>
        <time>2019-04-17T22:23:03Z</time>
      </trkpt>
      <trkpt lat="51.236059324551" lon="4.485248986375">
        <ele>9.6</ele>
        <time>2019-04-17T22:23:10Z</time>
      </trkpt>
      <trkpt lat="51.23608371588" lon="4.485566995661">
        <ele>8.4</ele>
        <time>2019-04-17T22:23:18Z</time>
      </trkpt>
      <trkpt lat="51.236088996477" lon="4.485889279716">
        <ele>8</ele>
        <time>2019-04-17T22:23:26Z</time>
      </trkpt>
      <trkpt lat="51.236076591265" lon="4.486179628732">
        <ele>7.6</ele>
        <time>2019-04-17T22:23:33Z</time>
      </trkpt>
      <trkpt lat="51.236076339808" lon="4.486493949982">
        <ele>6</ele>
        <time>2019-04-17T22:23:41Z</time>
      </trkpt>
      <trkpt lat="51.236078602921" lon="4.486817826598">
        <ele>4</ele>
        <time>2019-04-17T22:23:49Z</time>
      </trkpt>
      <trkpt lat="51.236089415572" lon="4.487115803143">
        <ele>2.8</ele>
        <time>2019-04-17T22:23:56Z</time>
      </trkpt>
      <trkpt lat="51.236096540187" lon="4.487440601768">
        <ele>3.6</ele>
        <time>2019-04-17T22:24:04Z</time>
      </trkpt>
      <trkpt lat="51.236101234051" lon="4.487761377081">
        <ele>4.2</ele>
        <time>2019-04-17T22:24:12Z</time>
      </trkpt>
      <trkpt lat="51.236115483281" lon="4.488052480468">
        <ele>5</ele>
        <time>2019-04-17T22:24:19Z</time>
      </trkpt>
      <trkpt lat="51.236127637036" lon="4.488349618823">
        <ele>4.4</ele>
        <time>2019-04-17T22:24:26Z</time>
      </trkpt>
      <trkpt lat="51.236132079443" lon="4.488644410246">
        <ele>2.8</ele>
        <time>2019-04-17T22:24:33Z</time>
      </trkpt>
      <trkpt lat="51.23613568366" lon="4.488935345995">
        <ele>2.6</ele>
        <time>2019-04-17T22:24:40Z</time>
      </trkpt>
      <trkpt lat="51.236153956202" lon="4.489226952296">
        <ele>4.6</ele>
        <time>2019-04-17T22:24:47Z</time>
      </trkpt>
      <trkpt lat="51.236139539334" lon="4.489520570253">
        <ele>5.6</ele>
        <time>2019-04-17T22:24:54Z</time>
      </trkpt>
      <trkpt lat="51.236110705598" lon="4.489826006689">
        <ele>5.8</ele>
        <time>2019-04-17T22:25:02Z</time>
      </trkpt>
      <trkpt lat="51.236066281528" lon="4.490148039287">
        <ele>6.2</ele>
        <time>2019-04-17T22:25:10Z</time>
      </trkpt>
      <trkpt lat="51.236001154165" lon="4.490416260087">
        <ele>7.2</ele>
        <time>2019-04-17T22:25:17Z</time>
      </trkpt>
      <trkpt lat="51.23594122358" lon="4.490727982948">
        <ele>9.4</ele>
        <time>2019-04-17T22:25:25Z</time>
      </trkpt>
      <trkpt lat="51.235874838932" lon="4.491036017773">
        <ele>12</ele>
        <time>2019-04-17T22:25:33Z</time>
      </trkpt>
      <trkpt lat="51.235807196999" lon="4.491314296853">
        <ele>12.6</ele>
        <time>2019-04-17T22:25:40Z</time>
      </trkpt>
      <trkpt lat="51.235728658596" lon="4.491582936748">
        <ele>12</ele>
        <time>2019-04-17T22:25:47Z</time>
      </trkpt>
      <trkpt lat="51.235647354166" lon="4.491873788678">
        <ele>9.6</ele>
        <time>2019-04-17T22:25:55Z</time>
      </trkpt>
      <trkpt lat="51.235565211546" lon="4.492133040845">
        <ele>6.6</ele>
        <time>2019-04-17T22:26:02Z</time>
      </trkpt>
      <trkpt lat="51.235481392546" lon="4.492415678513">
        <ele>4.4</ele>
        <time>2019-04-17T22:26:10Z</time>
      </trkpt>
      <trkpt lat="51.235386090343" lon="4.492701920398">
        <ele>3.2</ele>
        <time>2019-04-17T22:26:19Z</time>
      </trkpt>
      <trkpt lat="51.23530755194" lon="4.492967207533">
        <ele>3.6</ele>
        <time>2019-04-17T22:26:26Z</time>
      </trkpt>
      <trkpt lat="51.235229935546" lon="4.493265519354">
        <ele>3.6</ele>
        <time>2019-04-17T22:26:34Z</time>
      </trkpt>
      <trkpt lat="51.235152402971" lon="4.493528375738">
        <ele>3</ele>
        <time>2019-04-17T22:26:41Z</time>
      </trkpt>
      <trkpt lat="51.235084844857" lon="4.493801206583">
        <ele>3</ele>
        <time>2019-04-17T22:26:48Z</time>
      </trkpt>
      <trkpt lat="51.235012006146" lon="4.494066493718">
        <ele>3.6</ele>
        <time>2019-04-17T22:26:55Z</time>
      </trkpt>
      <trkpt lat="51.234929360612" lon="4.494332702862">
        <ele>2.8</ele>
        <time>2019-04-17T22:27:02Z</time>
      </trkpt>
      <trkpt lat="51.234788293235" lon="4.494842909115">
        <ele>3.2</ele>
        <time>2019-04-17T22:27:15Z</time>
      </trkpt>
      <trkpt lat="51.234703803683" lon="4.495106184594">
        <ele>2.2</ele>
        <time>2019-04-17T22:27:22Z</time>
      </trkpt>
      <trkpt lat="51.234627025479" lon="4.49537976981">
        <ele>2.4</ele>
        <time>2019-04-17T22:27:29Z</time>
      </trkpt>
      <trkpt lat="51.234544379945" lon="4.495654025578">
        <ele>3.2</ele>
        <time>2019-04-17T22:27:36Z</time>
      </trkpt>
      <trkpt lat="51.234463243153" lon="4.495914115935">
        <ele>2.4</ele>
        <time>2019-04-17T22:27:43Z</time>
      </trkpt>
      <trkpt lat="51.234388392786" lon="4.496179319251">
        <ele>3</ele>
        <time>2019-04-17T22:27:50Z</time>
      </trkpt>
      <trkpt lat="51.234307758908" lon="4.496467572792">
        <ele>1.8</ele>
        <time>2019-04-17T22:27:58Z</time>
      </trkpt>
      <trkpt lat="51.234238440595" lon="4.496734536307">
        <ele>1.2</ele>
        <time>2019-04-17T22:28:05Z</time>
      </trkpt>
      <trkpt lat="51.234163338771" lon="4.497000996908">
        <ele>2.8</ele>
        <time>2019-04-17T22:28:12Z</time>
      </trkpt>
      <trkpt lat="51.234096115933" lon="4.497269972079">
        <ele>4.6</ele>
        <time>2019-04-17T22:28:19Z</time>
      </trkpt>
      <trkpt lat="51.23401506296" lon="4.497562248932">
        <ele>7</ele>
        <time>2019-04-17T22:28:27Z</time>
      </trkpt>
      <trkpt lat="51.233930908684" lon="4.497830385913">
        <ele>6.6</ele>
        <time>2019-04-17T22:28:34Z</time>
      </trkpt>
      <trkpt lat="51.23383904306" lon="4.498082262008">
        <ele>7.4</ele>
        <time>2019-04-17T22:28:41Z</time>
      </trkpt>
      <trkpt lat="51.233729323989" lon="4.498353919387">
        <ele>8</ele>
        <time>2019-04-17T22:28:49Z</time>
      </trkpt>
      <trkpt lat="51.233631591035" lon="4.49859758122">
        <ele>7.8</ele>
        <time>2019-04-17T22:28:56Z</time>
      </trkpt>
      <trkpt lat="51.233516423729" lon="4.498855576102">
        <ele>9.2</ele>
        <time>2019-04-17T22:29:04Z</time>
      </trkpt>
      <trkpt lat="51.233384492623" lon="4.499065794154">
        <ele>8.8</ele>
        <time>2019-04-17T22:29:11Z</time>
      </trkpt>
      <trkpt lat="51.233265888738" lon="4.499281208984">
        <ele>9</ele>
        <time>2019-04-17T22:29:18Z</time>
      </trkpt>
      <trkpt lat="51.233135634012" lon="4.499502239687">
        <ele>8.6</ele>
        <time>2019-04-17T22:29:25Z</time>
      </trkpt>
      <trkpt lat="51.233008648227" lon="4.499712290101">
        <ele>7.6</ele>
        <time>2019-04-17T22:29:32Z</time>
      </trkpt>
      <trkpt lat="51.232873531999" lon="4.499931392967">
        <ele>5.8</ele>
        <time>2019-04-17T22:29:40Z</time>
      </trkpt>
      <trkpt lat="51.232734392459" lon="4.500169522746">
        <ele>4.4</ele>
        <time>2019-04-17T22:29:48Z</time>
      </trkpt>
      <trkpt lat="51.232611513805" lon="4.500389379983">
        <ele>5.2</ele>
        <time>2019-04-17T22:29:55Z</time>
      </trkpt>
      <trkpt lat="51.232499196345" lon="4.500619211681">
        <ele>7</ele>
        <time>2019-04-17T22:30:02Z</time>
      </trkpt>
      <trkpt lat="51.232385873057" lon="4.500847869913">
        <ele>6.8</ele>
        <time>2019-04-17T22:30:09Z</time>
      </trkpt>
      <trkpt lat="51.232269783742" lon="4.501077701611">
        <ele>5.4</ele>
        <time>2019-04-17T22:30:16Z</time>
      </trkpt>
      <trkpt lat="51.232154029703" lon="4.501305689291">
        <ele>4.8</ele>
        <time>2019-04-17T22:30:23Z</time>
      </trkpt>
      <trkpt lat="51.232037018379" lon="4.501555721368">
        <ele>6</ele>
        <time>2019-04-17T22:30:30Z</time>
      </trkpt>
      <trkpt lat="51.231921599616" lon="4.501800891943">
        <ele>7.4</ele>
        <time>2019-04-17T22:30:37Z</time>
      </trkpt>
      <trkpt lat="51.231779777868" lon="4.502004069199">
        <ele>9</ele>
        <time>2019-04-17T22:30:44Z</time>
      </trkpt>
      <trkpt lat="51.231605434348" lon="4.502070370028">
        <ele>11.2</ele>
        <time>2019-04-17T22:30:51Z</time>
      </trkpt>
      <trkpt lat="51.231421786919" lon="4.501949670668">
        <ele>9.8</ele>
        <time>2019-04-17T22:30:59Z</time>
      </trkpt>
      <trkpt lat="51.231250293245" lon="4.501811956051">
        <ele>9.4</ele>
        <time>2019-04-17T22:31:07Z</time>
      </trkpt>
      <trkpt lat="51.231079553942" lon="4.501652364675">
        <ele>9.8</ele>
        <time>2019-04-17T22:31:15Z</time>
      </trkpt>
      <trkpt lat="51.230954076899" lon="4.50150945328">
        <ele>10.4</ele>
        <time>2019-04-17T22:31:22Z</time>
      </trkpt>
      <trkpt lat="51.230919794928" lon="4.501519092465">
        <ele>10</ele>
        <time>2019-04-17T22:31:24Z</time>
      </trkpt>
      <trkpt lat="51.231021383556" lon="4.501779601917">
        <ele>11.6</ele>
        <time>2019-04-17T22:31:33Z</time>
      </trkpt>
      <trkpt lat="51.231151386825" lon="4.502028376709">
        <ele>12.2</ele>
        <time>2019-04-17T22:31:41Z</time>
      </trkpt>
      <trkpt lat="51.231258758964" lon="4.502276983863">
        <ele>11</ele>
        <time>2019-04-17T22:31:49Z</time>
      </trkpt>
      <trkpt lat="51.231349283484" lon="4.502529446691">
        <ele>11.6</ele>
        <time>2019-04-17T22:31:56Z</time>
      </trkpt>
      <trkpt lat="51.231432515751" lon="4.502782999166">
        <ele>10</ele>
        <time>2019-04-17T22:32:03Z</time>
      </trkpt>
      <trkpt lat="51.231450117741" lon="4.50306848668">
        <ele>7.8</ele>
        <time>2019-04-17T22:32:10Z</time>
      </trkpt>
      <trkpt lat="51.231416171046" lon="4.503376018591">
        <ele>6.6</ele>
        <time>2019-04-17T22:32:18Z</time>
      </trkpt>
      <trkpt lat="51.231336040082" lon="4.503639796984">
        <ele>5.6</ele>
        <time>2019-04-17T22:32:25Z</time>
      </trkpt>
      <trkpt lat="51.231242162802" lon="4.503882201532">
        <ele>5.2</ele>
        <time>2019-04-17T22:32:32Z</time>
      </trkpt>
      <trkpt lat="51.231184243873" lon="4.504153439816">
        <ele>5.2</ele>
        <time>2019-04-17T22:32:39Z</time>
      </trkpt>
      <trkpt lat="51.231148201703" lon="4.504467677247">
        <ele>5.4</ele>
        <time>2019-04-17T22:32:47Z</time>
      </trkpt>
      <trkpt lat="51.23109899995" lon="4.504768838914">
        <ele>7</ele>
        <time>2019-04-17T22:32:55Z</time>
      </trkpt>
      <trkpt lat="51.231010319448" lon="4.505147784613">
        <ele>8</ele>
        <time>2019-04-17T22:33:05Z</time>
      </trkpt>
      <trkpt lat="51.230958603125" lon="4.505426734245">
        <ele>8.2</ele>
        <time>2019-04-17T22:33:12Z</time>
      </trkpt>
      <trkpt lat="51.230881405826" lon="4.505704091316">
        <ele>8.6</ele>
        <time>2019-04-17T22:33:20Z</time>
      </trkpt>
      <trkpt lat="51.230777889361" lon="4.505952782289">
        <ele>9</ele>
        <time>2019-04-17T22:33:28Z</time>
      </trkpt>
      <trkpt lat="51.230681748968" lon="4.506232318654">
        <ele>8.8</ele>
        <time>2019-04-17T22:33:36Z</time>
      </trkpt>
      <trkpt lat="51.230599941624" lon="4.506516129788">
        <ele>8.2</ele>
        <time>2019-04-17T22:33:44Z</time>
      </trkpt>
      <trkpt lat="51.230529952759" lon="4.506796336705">
        <ele>10</ele>
        <time>2019-04-17T22:33:52Z</time>
      </trkpt>
      <trkpt lat="51.230465831224" lon="4.507080483115">
        <ele>11.2</ele>
        <time>2019-04-17T22:34:00Z</time>
      </trkpt>
      <trkpt lat="51.230433644728" lon="4.50739019432">
        <ele>8.4</ele>
        <time>2019-04-17T22:34:08Z</time>
      </trkpt>
      <trkpt lat="51.230386370812" lon="4.507692445634">
        <ele>6.6</ele>
        <time>2019-04-17T22:34:16Z</time>
      </trkpt>
      <trkpt lat="51.230300707794" lon="4.507988745799">
        <ele>7.4</ele>
        <time>2019-04-17T22:34:24Z</time>
      </trkpt>
      <trkpt lat="51.230226527979" lon="4.508280687376">
        <ele>8.6</ele>
        <time>2019-04-17T22:34:32Z</time>
      </trkpt>
      <trkpt lat="51.230171207439" lon="4.508594254255">
        <ele>7.4</ele>
        <time>2019-04-17T22:34:40Z</time>
      </trkpt>
      <trkpt lat="51.230117395641" lon="4.508879574131">
        <ele>8</ele>
        <time>2019-04-17T22:34:48Z</time>
      </trkpt>
      <trkpt lat="51.230070959915" lon="4.509187776594">
        <ele>7.4</ele>
        <time>2019-04-17T22:34:56Z</time>
      </trkpt>
      <trkpt lat="51.230007089837" lon="4.509464379294">
        <ele>6</ele>
        <time>2019-04-17T22:35:03Z</time>
      </trkpt>
      <trkpt lat="51.229956882256" lon="4.509748693342">
        <ele>7.8</ele>
        <time>2019-04-17T22:35:10Z</time>
      </trkpt>
      <trkpt lat="51.229877589482" lon="4.510024038757">
        <ele>7.6</ele>
        <time>2019-04-17T22:35:18Z</time>
      </trkpt>
      <trkpt lat="51.229820592562" lon="4.510316818524">
        <ele>7.4</ele>
        <time>2019-04-17T22:35:26Z</time>
      </trkpt>
      <trkpt lat="51.229758315045" lon="4.51059291831">
        <ele>7.4</ele>
        <time>2019-04-17T22:35:34Z</time>
      </trkpt>
      <trkpt lat="51.229750268421" lon="4.510891649226">
        <ele>8.6</ele>
        <time>2019-04-17T22:35:42Z</time>
      </trkpt>
      <trkpt lat="51.229687152714" lon="4.511195493101">
        <ele>9.2</ele>
        <time>2019-04-17T22:35:50Z</time>
      </trkpt>
      <trkpt lat="51.229590006493" lon="4.511468575403">
        <ele>9</ele>
        <time>2019-04-17T22:35:58Z</time>
      </trkpt>
      <trkpt lat="51.229526136415" lon="4.511741406248">
        <ele>7.2</ele>
        <time>2019-04-17T22:36:05Z</time>
      </trkpt>
      <trkpt lat="51.229478946318" lon="4.512041897363">
        <ele>6.4</ele>
        <time>2019-04-17T22:36:13Z</time>
      </trkpt>
      <trkpt lat="51.229384147029" lon="4.512289917784">
        <ele>7</ele>
        <time>2019-04-17T22:36:20Z</time>
      </trkpt>
      <trkpt lat="51.22931533163" lon="4.512585212121">
        <ele>8.4</ele>
        <time>2019-04-17T22:36:28Z</time>
      </trkpt>
      <trkpt lat="51.229251293914" lon="4.512871454006">
        <ele>6.2</ele>
        <time>2019-04-17T22:36:36Z</time>
      </trkpt>
      <trkpt lat="51.229174180434" lon="4.513164317592">
        <ele>4.4</ele>
        <time>2019-04-17T22:36:44Z</time>
      </trkpt>
      <trkpt lat="51.229129085812" lon="4.513458354644">
        <ele>4</ele>
        <time>2019-04-17T22:36:51Z</time>
      </trkpt>
      <trkpt lat="51.229047781382" lon="4.513714589327">
        <ele>4.6</ele>
        <time>2019-04-17T22:36:58Z</time>
      </trkpt>
      <trkpt lat="51.229013415592" lon="4.514001250307">
        <ele>3.2</ele>
        <time>2019-04-17T22:37:06Z</time>
      </trkpt>
      <trkpt lat="51.228980390906" lon="4.514311045331">
        <ele>5.4</ele>
        <time>2019-04-17T22:37:14Z</time>
      </trkpt>
      <trkpt lat="51.22890461853" lon="4.514610027704">
        <ele>6.6</ele>
        <time>2019-04-17T22:37:22Z</time>
      </trkpt>
      <trkpt lat="51.228817949684" lon="4.514865005102">
        <ele>9.8</ele>
        <time>2019-04-17T22:37:29Z</time>
      </trkpt>
      <trkpt lat="51.228739578919" lon="4.515143535639">
        <ele>10.6</ele>
        <time>2019-04-17T22:37:37Z</time>
      </trkpt>
      <trkpt lat="51.22867411628" lon="4.515439500528">
        <ele>12.2</ele>
        <time>2019-04-17T22:37:45Z</time>
      </trkpt>
      <trkpt lat="51.228626674726" lon="4.515747451534">
        <ele>12.8</ele>
        <time>2019-04-17T22:37:53Z</time>
      </trkpt>
      <trkpt lat="51.228561715001" lon="4.516025646795">
        <ele>12.2</ele>
        <time>2019-04-17T22:38:01Z</time>
      </trkpt>
      <trkpt lat="51.22849558181" lon="4.516322114598">
        <ele>12.4</ele>
        <time>2019-04-17T22:38:09Z</time>
      </trkpt>
      <trkpt lat="51.228426598773" lon="4.516593855796">
        <ele>9</ele>
        <time>2019-04-17T22:38:16Z</time>
      </trkpt>
      <trkpt lat="51.228362980152" lon="4.516871212867">
        <ele>5.8</ele>
        <time>2019-04-17T22:38:24Z</time>
      </trkpt>
      <trkpt lat="51.228253931633" lon="4.517124010971">
        <ele>5</ele>
        <time>2019-04-17T22:38:32Z</time>
      </trkpt>
      <trkpt lat="51.228136920309" lon="4.517360799646">
        <ele>6.4</ele>
        <time>2019-04-17T22:38:40Z</time>
      </trkpt>
      <trkpt lat="51.228025860134" lon="4.517626254419">
        <ele>7</ele>
        <time>2019-04-17T22:38:48Z</time>
      </trkpt>
      <trkpt lat="51.227936341442" lon="4.517881902369">
        <ele>7.8</ele>
        <time>2019-04-17T22:38:55Z</time>
      </trkpt>
      <trkpt lat="51.227764009578" lon="4.51834030848">
        <ele>10</ele>
        <time>2019-04-17T22:39:09Z</time>
      </trkpt>
      <trkpt lat="51.227657559448" lon="4.518612636411">
        <ele>12.6</ele>
        <time>2019-04-17T22:39:17Z</time>
      </trkpt>
      <trkpt lat="51.227558066295" lon="4.518874654605">
        <ele>12</ele>
        <time>2019-04-17T22:39:25Z</time>
      </trkpt>
      <trkpt lat="51.227453963097" lon="4.519110856547">
        <ele>11.8</ele>
        <time>2019-04-17T22:39:33Z</time>
      </trkpt>
      <trkpt lat="51.227295209911" lon="4.519243961119">
        <ele>14.4</ele>
        <time>2019-04-17T22:39:41Z</time>
      </trkpt>
      <trkpt lat="51.227111646301" lon="4.519307998835">
        <ele>20.6</ele>
        <time>2019-04-17T22:39:49Z</time>
      </trkpt>
      <trkpt lat="51.227041741255" lon="4.519039107483">
        <ele>19.8</ele>
        <time>2019-04-17T22:39:56Z</time>
      </trkpt>
      <trkpt lat="51.227037215029" lon="4.518751189218">
        <ele>18.4</ele>
        <time>2019-04-17T22:40:04Z</time>
      </trkpt>
      <trkpt lat="51.226981307756" lon="4.518434604855">
        <ele>18.8</ele>
        <time>2019-04-17T22:40:12Z</time>
      </trkpt>
      <trkpt lat="51.22692984289" lon="4.518126234754">
        <ele>17.8</ele>
        <time>2019-04-17T22:40:19Z</time>
      </trkpt>
      <trkpt lat="51.226871840142" lon="4.517850218787">
        <ele>17</ele>
        <time>2019-04-17T22:40:26Z</time>
      </trkpt>
      <trkpt lat="51.226830433556" lon="4.517562887255">
        <ele>15.6</ele>
        <time>2019-04-17T22:40:33Z</time>
      </trkpt>
      <trkpt lat="51.226794642843" lon="4.517264826891">
        <ele>14.6</ele>
        <time>2019-04-17T22:40:40Z</time>
      </trkpt>
      <trkpt lat="51.226758097759" lon="4.516981015757">
        <ele>13.8</ele>
        <time>2019-04-17T22:40:47Z</time>
      </trkpt>
      <trkpt lat="51.226713506051" lon="4.516698964822">
        <ele>12</ele>
        <time>2019-04-17T22:40:54Z</time>
      </trkpt>
      <trkpt lat="51.226669501076" lon="4.516413728765">
        <ele>11.2</ele>
        <time>2019-04-17T22:41:01Z</time>
      </trkpt>
      <trkpt lat="51.226592722872" lon="4.516105274845">
        <ele>9.8</ele>
        <time>2019-04-17T22:41:08Z</time>
      </trkpt>
      <trkpt lat="51.226515609392" lon="4.515814590553">
        <ele>11</ele>
        <time>2019-04-17T22:41:15Z</time>
      </trkpt>
      <trkpt lat="51.226448135097" lon="4.515532707256">
        <ele>10.4</ele>
        <time>2019-04-17T22:41:22Z</time>
      </trkpt>
      <trkpt lat="51.226393820385" lon="4.515240178946">
        <ele>10.6</ele>
        <time>2019-04-17T22:41:29Z</time>
      </trkpt>
      <trkpt lat="51.226327351918" lon="4.514951673948">
        <ele>11</ele>
        <time>2019-04-17T22:41:36Z</time>
      </trkpt>
      <trkpt lat="51.226264236211" lon="4.514645147865">
        <ele>10.6</ele>
        <time>2019-04-17T22:41:43Z</time>
      </trkpt>
      <trkpt lat="51.226205479092" lon="4.514335855755">
        <ele>10</ele>
        <time>2019-04-17T22:41:50Z</time>
      </trkpt>
      <trkpt lat="51.226147392525" lon="4.514031508966">
        <ele>10</ele>
        <time>2019-04-17T22:41:58Z</time>
      </trkpt>
      <trkpt lat="51.226096765849" lon="4.513727413634">
        <ele>8.2</ele>
        <time>2019-04-17T22:42:06Z</time>
      </trkpt>
      <trkpt lat="51.226079247678" lon="4.513577629081">
        <ele>8</ele>
        <time>2019-04-17T22:42:10Z</time>
      </trkpt>
      <trkpt lat="51.22610925488" lon="4.51328769916">
        <ele>8.4</ele>
        <time>2019-04-17T22:42:18Z</time>
      </trkpt>
      <trkpt lat="51.226058209109" lon="4.512976060118">
        <ele>4.2</ele>
        <time>2019-04-17T22:42:26Z</time>
      </trkpt>
      <trkpt lat="51.226002637112" lon="4.512701720531">
        <ele>4.4</ele>
        <time>2019-04-17T22:42:33Z</time>
      </trkpt>
      <trkpt lat="51.225947316572" lon="4.512422351804">
        <ele>5</ele>
        <time>2019-04-17T22:42:40Z</time>
      </trkpt>
      <trkpt lat="51.225880512829" lon="4.512144408">
        <ele>5.6</ele>
        <time>2019-04-17T22:42:47Z</time>
      </trkpt>
      <trkpt lat="51.225830221429" lon="4.511866799472">
        <ele>6.2</ele>
        <time>2019-04-17T22:42:54Z</time>
      </trkpt>
      <trkpt lat="51.225765932256" lon="4.5115744388">
        <ele>6</ele>
        <time>2019-04-17T22:43:02Z</time>
      </trkpt>
      <trkpt lat="51.225714299752" lon="4.511260620464">
        <ele>6.8</ele>
        <time>2019-04-17T22:43:10Z</time>
      </trkpt>
      <trkpt lat="51.225642047774" lon="4.510955351666">
        <ele>5.2</ele>
        <time>2019-04-17T22:43:18Z</time>
      </trkpt>
      <trkpt lat="51.225583123017" lon="4.510673636007">
        <ele>4.8</ele>
        <time>2019-04-17T22:43:25Z</time>
      </trkpt>
      <trkpt lat="51.225544985372" lon="4.510390746882">
        <ele>5.6</ele>
        <time>2019-04-17T22:43:32Z</time>
      </trkpt>
      <trkpt lat="51.225491173574" lon="4.510117496942">
        <ele>6.8</ele>
        <time>2019-04-17T22:43:39Z</time>
      </trkpt>
      <trkpt lat="51.22543786469" lon="4.509824549537">
        <ele>5.4</ele>
        <time>2019-04-17T22:43:47Z</time>
      </trkpt>
      <trkpt lat="51.22538086777" lon="4.509507378441">
        <ele>4.2</ele>
        <time>2019-04-17T22:43:55Z</time>
      </trkpt>
      <trkpt lat="51.225323619393" lon="4.509195068847">
        <ele>4.4</ele>
        <time>2019-04-17T22:44:03Z</time>
      </trkpt>
      <trkpt lat="51.225263856446" lon="4.508919555794">
        <ele>4.4</ele>
        <time>2019-04-17T22:44:10Z</time>
      </trkpt>
      <trkpt lat="51.225201662748" lon="4.508644042741">
        <ele>5</ele>
        <time>2019-04-17T22:44:17Z</time>
      </trkpt>
      <trkpt lat="51.225142486534" lon="4.508336175554">
        <ele>4.6</ele>
        <time>2019-04-17T22:44:25Z</time>
      </trkpt>
      <trkpt lat="51.225088674736" lon="4.508020848476">
        <ele>3.8</ele>
        <time>2019-04-17T22:44:33Z</time>
      </trkpt>
      <trkpt lat="51.2250263134" lon="4.507745754518">
        <ele>4.8</ele>
        <time>2019-04-17T22:44:40Z</time>
      </trkpt>
      <trkpt lat="51.22497099286" lon="4.507467726895">
        <ele>5.8</ele>
        <time>2019-04-17T22:44:47Z</time>
      </trkpt>
      <trkpt lat="51.224881641806" lon="4.507074867242">
        <ele>8.6</ele>
        <time>2019-04-17T22:44:57Z</time>
      </trkpt>
      <trkpt lat="51.224809473647" lon="4.506792732488">
        <ele>7.6</ele>
        <time>2019-04-17T22:45:04Z</time>
      </trkpt>
      <trkpt lat="51.22475138708" lon="4.506512357933">
        <ele>7.4</ele>
        <time>2019-04-17T22:45:11Z</time>
      </trkpt>
      <trkpt lat="51.224691372676" lon="4.506207256773">
        <ele>7</ele>
        <time>2019-04-17T22:45:19Z</time>
      </trkpt>
      <trkpt lat="51.224648792624" lon="4.505907687667">
        <ele>6.8</ele>
        <time>2019-04-17T22:45:27Z</time>
      </trkpt>
      <trkpt lat="51.224626161494" lon="4.505599401385">
        <ele>5.2</ele>
        <time>2019-04-17T22:45:35Z</time>
      </trkpt>
      <trkpt lat="51.224565811814" lon="4.505285750687">
        <ele>2.2</ele>
        <time>2019-04-17T22:45:43Z</time>
      </trkpt>
      <trkpt lat="51.224499678623" lon="4.505017110792">
        <ele>1.2</ele>
        <time>2019-04-17T22:45:50Z</time>
      </trkpt>
      <trkpt lat="51.224435473269" lon="4.504710249433">
        <ele>0.4</ele>
        <time>2019-04-17T22:45:58Z</time>
      </trkpt>
      <trkpt lat="51.224381158557" lon="4.504396012002">
        <ele>0.8</ele>
        <time>2019-04-17T22:46:06Z</time>
      </trkpt>
      <trkpt lat="51.22431971923" lon="4.504125611908">
        <ele>1.4</ele>
        <time>2019-04-17T22:46:13Z</time>
      </trkpt>
      <trkpt lat="51.224257609351" lon="4.503837777462">
        <ele>1</ele>
        <time>2019-04-17T22:46:20Z</time>
      </trkpt>
      <trkpt lat="51.224198600775" lon="4.503558324916">
        <ele>0.4</ele>
        <time>2019-04-17T22:46:27Z</time>
      </trkpt>
      <trkpt lat="51.22413867019" lon="4.503253056118">
        <ele>2</ele>
        <time>2019-04-17T22:46:35Z</time>
      </trkpt>
      <trkpt lat="51.224084439297" lon="4.502979219445">
        <ele>2.8</ele>
        <time>2019-04-17T22:46:42Z</time>
      </trkpt>
      <trkpt lat="51.224026939463" lon="4.502701694736">
        <ele>3.2</ele>
        <time>2019-04-17T22:46:49Z</time>
      </trkpt>
      <trkpt lat="51.223961393005" lon="4.502429702081">
        <ele>4</ele>
        <time>2019-04-17T22:46:56Z</time>
      </trkpt>
      <trkpt lat="51.223902384429" lon="4.502159553444">
        <ele>4.4</ele>
        <time>2019-04-17T22:47:03Z</time>
      </trkpt>
      <trkpt lat="51.223843962586" lon="4.501884627124">
        <ele>4.6</ele>
        <time>2019-04-17T22:47:10Z</time>
      </trkpt>
      <trkpt lat="51.223783193811" lon="4.501598636696">
        <ele>4.6</ele>
        <time>2019-04-17T22:47:17Z</time>
      </trkpt>
      <trkpt lat="51.223723347045" lon="4.501316166666">
        <ele>4</ele>
        <time>2019-04-17T22:47:24Z</time>
      </trkpt>
      <trkpt lat="51.223662997365" lon="4.501023722175">
        <ele>3.6</ele>
        <time>2019-04-17T22:47:31Z</time>
      </trkpt>
      <trkpt lat="51.223612705965" lon="4.500719207748">
        <ele>3.6</ele>
        <time>2019-04-17T22:47:38Z</time>
      </trkpt>
      <trkpt lat="51.223557888339" lon="4.500432043854">
        <ele>3.6</ele>
        <time>2019-04-17T22:47:45Z</time>
      </trkpt>
      <trkpt lat="51.223504663274" lon="4.500150244376">
        <ele>5.4</ele>
        <time>2019-04-17T22:47:52Z</time>
      </trkpt>
      <trkpt lat="51.223449510372" lon="4.499874815142">
        <ele>6</ele>
        <time>2019-04-17T22:47:59Z</time>
      </trkpt>
      <trkpt lat="51.223393267823" lon="4.499587902705">
        <ele>6.4</ele>
        <time>2019-04-17T22:48:07Z</time>
      </trkpt>
      <trkpt lat="51.223351777418" lon="4.499288082142">
        <ele>6.4</ele>
        <time>2019-04-17T22:48:15Z</time>
      </trkpt>
      <trkpt lat="51.223301905113" lon="4.498976191643">
        <ele>6.2</ele>
        <time>2019-04-17T22:48:23Z</time>
      </trkpt>
      <trkpt lat="51.223244405279" lon="4.498701600599">
        <ele>5</ele>
        <time>2019-04-17T22:48:30Z</time>
      </trkpt>
      <trkpt lat="51.223172991491" lon="4.498395745068">
        <ele>4</ele>
        <time>2019-04-17T22:48:38Z</time>
      </trkpt>
      <trkpt lat="51.223114318191" lon="4.498096092143">
        <ele>5.2</ele>
        <time>2019-04-17T22:48:46Z</time>
      </trkpt>
      <trkpt lat="51.223058830013" lon="4.49780130072">
        <ele>5</ele>
        <time>2019-04-17T22:48:54Z</time>
      </trkpt>
      <trkpt lat="51.222985656026" lon="4.497537522327">
        <ele>5.2</ele>
        <time>2019-04-17T22:49:02Z</time>
      </trkpt>
      <trkpt lat="51.222916253894" lon="4.497244994017">
        <ele>5</ele>
        <time>2019-04-17T22:49:10Z</time>
      </trkpt>
      <trkpt lat="51.222859508431" lon="4.496941820694">
        <ele>4.2</ele>
        <time>2019-04-17T22:49:18Z</time>
      </trkpt>
      <trkpt lat="51.222797230914" lon="4.496639234104">
        <ele>1.8</ele>
        <time>2019-04-17T22:49:26Z</time>
      </trkpt>
      <trkpt lat="51.222737719424" lon="4.496329690537">
        <ele>2.4</ele>
        <time>2019-04-17T22:49:34Z</time>
      </trkpt>
      <trkpt lat="51.222679716676" lon="4.496056021502">
        <ele>4</ele>
        <time>2019-04-17T22:49:41Z</time>
      </trkpt>
      <trkpt lat="51.222617942073" lon="4.495775227852">
        <ele>4.2</ele>
        <time>2019-04-17T22:49:48Z</time>
      </trkpt>
      <trkpt lat="51.222556251289" lon="4.495495104754">
        <ele>4</ele>
        <time>2019-04-17T22:49:55Z</time>
      </trkpt>
      <trkpt lat="51.22250000874" lon="4.495211042163">
        <ele>4</ele>
        <time>2019-04-17T22:50:02Z</time>
      </trkpt>
      <trkpt lat="51.222439156146" lon="4.494923123898">
        <ele>4.2</ele>
        <time>2019-04-17T22:50:09Z</time>
      </trkpt>
      <trkpt lat="51.222387439823" lon="4.49463880985">
        <ele>3.6</ele>
        <time>2019-04-17T22:50:16Z</time>
      </trkpt>
      <trkpt lat="51.222326587229" lon="4.494357261829">
        <ele>4.6</ele>
        <time>2019-04-17T22:50:23Z</time>
      </trkpt>
      <trkpt lat="51.22226699192" lon="4.494054088506">
        <ele>5.6</ele>
        <time>2019-04-17T22:50:31Z</time>
      </trkpt>
      <trkpt lat="51.222215694692" lon="4.493770696467">
        <ele>6.6</ele>
        <time>2019-04-17T22:50:38Z</time>
      </trkpt>
      <trkpt lat="51.222149058587" lon="4.49345780014">
        <ele>7.8</ele>
        <time>2019-04-17T22:50:46Z</time>
      </trkpt>
      <trkpt lat="51.222094827694" lon="4.493184466381">
        <ele>8.2</ele>
        <time>2019-04-17T22:50:53Z</time>
      </trkpt>
      <trkpt lat="51.222029113598" lon="4.492875174271">
        <ele>7.8</ele>
        <time>2019-04-17T22:51:01Z</time>
      </trkpt>
      <trkpt lat="51.221971697583" lon="4.492566971808">
        <ele>10.2</ele>
        <time>2019-04-17T22:51:09Z</time>
      </trkpt>
      <trkpt lat="51.221921070907" lon="4.492291291117">
        <ele>7</ele>
        <time>2019-04-17T22:51:16Z</time>
      </trkpt>
      <trkpt lat="51.221875305733" lon="4.49199515859">
        <ele>4.4</ele>
        <time>2019-04-17T22:51:23Z</time>
      </trkpt>
      <trkpt lat="51.221819147003" lon="4.491714448759">
        <ele>5.6</ele>
        <time>2019-04-17T22:51:30Z</time>
      </trkpt>
      <trkpt lat="51.221757540038" lon="4.49144195319">
        <ele>9</ele>
        <time>2019-04-17T22:51:37Z</time>
      </trkpt>
      <trkpt lat="51.221700543118" lon="4.491156298038">
        <ele>13</ele>
        <time>2019-04-17T22:51:44Z</time>
      </trkpt>
      <trkpt lat="51.221630470434" lon="4.490867122488">
        <ele>15.4</ele>
        <time>2019-04-17T22:51:52Z</time>
      </trkpt>
      <trkpt lat="51.221562828501" lon="4.490572917798">
        <ele>16.2</ele>
        <time>2019-04-17T22:52:00Z</time>
      </trkpt>
      <trkpt lat="51.221513375291" lon="4.490286172999">
        <ele>11.6</ele>
        <time>2019-04-17T22:52:07Z</time>
      </trkpt>
      <trkpt lat="51.22145059486" lon="4.490001439856">
        <ele>12.4</ele>
        <time>2019-04-17T22:52:14Z</time>
      </trkpt>
      <trkpt lat="51.221396531605" lon="4.489723747509">
        <ele>13.4</ele>
        <time>2019-04-17T22:52:21Z</time>
      </trkpt>
      <trkpt lat="51.22134163016" lon="4.489445049334">
        <ele>10.6</ele>
        <time>2019-04-17T22:52:28Z</time>
      </trkpt>
      <trkpt lat="51.221282453946" lon="4.489135338129">
        <ele>10.2</ele>
        <time>2019-04-17T22:52:36Z</time>
      </trkpt>
      <trkpt lat="51.221241298817" lon="4.488857059049">
        <ele>9.2</ele>
        <time>2019-04-17T22:52:43Z</time>
      </trkpt>
      <trkpt lat="51.221179105119" lon="4.488565620386">
        <ele>7.4</ele>
        <time>2019-04-17T22:52:51Z</time>
      </trkpt>
      <trkpt lat="51.221131579746" lon="4.488287341306">
        <ele>7.2</ele>
        <time>2019-04-17T22:52:58Z</time>
      </trkpt>
      <trkpt lat="51.221058992492" lon="4.488020545429">
        <ele>8.2</ele>
        <time>2019-04-17T22:53:05Z</time>
      </trkpt>
      <trkpt lat="51.220992607844" lon="4.487713432613">
        <ele>9.2</ele>
        <time>2019-04-17T22:53:13Z</time>
      </trkpt>
      <trkpt lat="51.220962265366" lon="4.487425179072">
        <ele>9.4</ele>
        <time>2019-04-17T22:53:20Z</time>
      </trkpt>
      <trkpt lat="51.220904765532" lon="4.487111528374">
        <ele>9.8</ele>
        <time>2019-04-17T22:53:28Z</time>
      </trkpt>
      <trkpt lat="51.220829998984" lon="4.486842553203">
        <ele>9.8</ele>
        <time>2019-04-17T22:53:35Z</time>
      </trkpt>
      <trkpt lat="51.220776522462" lon="4.486563519752">
        <ele>8.6</ele>
        <time>2019-04-17T22:53:42Z</time>
      </trkpt>
      <trkpt lat="51.220699241344" lon="4.486262693361">
        <ele>8.4</ele>
        <time>2019-04-17T22:53:50Z</time>
      </trkpt>
      <trkpt lat="51.220656996568" lon="4.485946863369">
        <ele>8.2</ele>
        <time>2019-04-17T22:53:58Z</time>
      </trkpt>
      <trkpt lat="51.220602011304" lon="4.485665315348">
        <ele>8.6</ele>
        <time>2019-04-17T22:54:05Z</time>
      </trkpt>
      <trkpt lat="51.220551384628" lon="4.485382426223">
        <ele>8.8</ele>
        <time>2019-04-17T22:54:12Z</time>
      </trkpt>
      <trkpt lat="51.220490783491" lon="4.485103225134">
        <ele>9.2</ele>
        <time>2019-04-17T22:54:19Z</time>
      </trkpt>
      <trkpt lat="51.220434540942" lon="4.484817905258">
        <ele>9.2</ele>
        <time>2019-04-17T22:54:26Z</time>
      </trkpt>
      <trkpt lat="51.220381734972" lon="4.484529819355">
        <ele>9</ele>
        <time>2019-04-17T22:54:33Z</time>
      </trkpt>
      <trkpt lat="51.220326079156" lon="4.484244499479">
        <ele>8.6</ele>
        <time>2019-04-17T22:54:41Z</time>
      </trkpt>
      <trkpt lat="51.220270758616" lon="4.483946942029">
        <ele>7.8</ele>
        <time>2019-04-17T22:54:49Z</time>
      </trkpt>
      <trkpt lat="51.220207726728" lon="4.48364343343">
        <ele>6.8</ele>
        <time>2019-04-17T22:54:57Z</time>
      </trkpt>
      <trkpt lat="51.220144862478" lon="4.483341852668">
        <ele>9</ele>
        <time>2019-04-17T22:55:05Z</time>
      </trkpt>
      <trkpt lat="51.22009440344" lon="4.483030129807">
        <ele>8.2</ele>
        <time>2019-04-17T22:55:13Z</time>
      </trkpt>
      <trkpt lat="51.220022654376" lon="4.482740954257">
        <ele>8.8</ele>
        <time>2019-04-17T22:55:21Z</time>
      </trkpt>
      <trkpt lat="51.219962639972" lon="4.482471140896">
        <ele>9.6</ele>
        <time>2019-04-17T22:55:28Z</time>
      </trkpt>
      <trkpt lat="51.219906900337" lon="4.482156652008">
        <ele>10</ele>
        <time>2019-04-17T22:55:36Z</time>
      </trkpt>
      <trkpt lat="51.219851160702" lon="4.48187485253">
        <ele>8.6</ele>
        <time>2019-04-17T22:55:43Z</time>
      </trkpt>
      <trkpt lat="51.219787122986" lon="4.48159741164">
        <ele>9.2</ele>
        <time>2019-04-17T22:55:50Z</time>
      </trkpt>
      <trkpt lat="51.219714116637" lon="4.481299602733">
        <ele>10.2</ele>
        <time>2019-04-17T22:55:58Z</time>
      </trkpt>
      <trkpt lat="51.219680589037" lon="4.481018138531">
        <ele>11.4</ele>
        <time>2019-04-17T22:56:05Z</time>
      </trkpt>
      <trkpt lat="51.219621496642" lon="4.480725274945">
        <ele>12</ele>
        <time>2019-04-17T22:56:13Z</time>
      </trkpt>
      <trkpt lat="51.219554776718" lon="4.480428220409">
        <ele>11.8</ele>
        <time>2019-04-17T22:56:22Z</time>
      </trkpt>
      <trkpt lat="51.219427120381" lon="4.479850456042">
        <ele>11</ele>
        <time>2019-04-17T22:56:37Z</time>
      </trkpt>
      <trkpt lat="51.219316730758" lon="4.479593550807">
        <ele>11.4</ele>
        <time>2019-04-17T22:56:45Z</time>
      </trkpt>
      <trkpt lat="51.219273563973" lon="4.47928233086">
        <ele>11.6</ele>
        <time>2019-04-17T22:56:53Z</time>
      </trkpt>
      <trkpt lat="51.219207849877" lon="4.478992903853">
        <ele>11.4</ele>
        <time>2019-04-17T22:57:01Z</time>
      </trkpt>
      <trkpt lat="51.219152361699" lon="4.478678917879">
        <ele>8.6</ele>
        <time>2019-04-17T22:57:09Z</time>
      </trkpt>
      <trkpt lat="51.219108440543" lon="4.478372391796">
        <ele>7.6</ele>
        <time>2019-04-17T22:57:17Z</time>
      </trkpt>
      <trkpt lat="51.219062088636" lon="4.478068045007">
        <ele>7.4</ele>
        <time>2019-04-17T22:57:25Z</time>
      </trkpt>
      <trkpt lat="51.219014060349" lon="4.477759591087">
        <ele>8.6</ele>
        <time>2019-04-17T22:57:33Z</time>
      </trkpt>
      <trkpt lat="51.218939126163" lon="4.477458010325">
        <ele>8.4</ele>
        <time>2019-04-17T22:57:41Z</time>
      </trkpt>
      <trkpt lat="51.218894869731" lon="4.477147544749">
        <ele>10.4</ele>
        <time>2019-04-17T22:57:49Z</time>
      </trkpt>
      <trkpt lat="51.21885639681" lon="4.476848646195">
        <ele>11</ele>
        <time>2019-04-17T22:57:57Z</time>
      </trkpt>
      <trkpt lat="51.218891852247" lon="4.47656240431">
        <ele>11</ele>
        <time>2019-04-17T22:58:04Z</time>
      </trkpt>
      <trkpt lat="51.218932085367" lon="4.476243389196">
        <ele>11.2</ele>
        <time>2019-04-17T22:58:12Z</time>
      </trkpt>
      <trkpt lat="51.218954213583" lon="4.475958488415">
        <ele>11.2</ele>
        <time>2019-04-17T22:58:19Z</time>
      </trkpt>
      <trkpt lat="51.218985058975" lon="4.475672497987">
        <ele>11.2</ele>
        <time>2019-04-17T22:58:26Z</time>
      </trkpt>
      <trkpt lat="51.219026381742" lon="4.475358260556">
        <ele>13.8</ele>
        <time>2019-04-17T22:58:34Z</time>
      </trkpt>
      <trkpt lat="51.219064854663" lon="4.475044358401">
        <ele>14</ele>
        <time>2019-04-17T22:58:42Z</time>
      </trkpt>
      <trkpt lat="51.219113134407" lon="4.474760547267">
        <ele>12.6</ele>
        <time>2019-04-17T22:58:49Z</time>
      </trkpt>
      <trkpt lat="51.219153451346" lon="4.474474053925">
        <ele>12.4</ele>
        <time>2019-04-17T22:58:56Z</time>
      </trkpt>
      <trkpt lat="51.219189409697" lon="4.47419200299">
        <ele>13.8</ele>
        <time>2019-04-17T22:59:03Z</time>
      </trkpt>
      <trkpt lat="51.219229307541" lon="4.473896457196">
        <ele>14.4</ele>
        <time>2019-04-17T22:59:10Z</time>
      </trkpt>
      <trkpt lat="51.219266439358" lon="4.473607030189">
        <ele>15.4</ele>
        <time>2019-04-17T22:59:17Z</time>
      </trkpt>
      <trkpt lat="51.219315557292" lon="4.473318357553">
        <ele>14.6</ele>
        <time>2019-04-17T22:59:24Z</time>
      </trkpt>
      <trkpt lat="51.219360484276" lon="4.473038821188">
        <ele>15.6</ele>
        <time>2019-04-17T22:59:31Z</time>
      </trkpt>
      <trkpt lat="51.219407003821" lon="4.47274696343">
        <ele>15</ele>
        <time>2019-04-17T22:59:38Z</time>
      </trkpt>
      <trkpt lat="51.219446147294" lon="4.472465666866">
        <ele>15</ele>
        <time>2019-04-17T22:59:45Z</time>
      </trkpt>
      <trkpt lat="51.21949593578" lon="4.472145226829">
        <ele>14.4</ele>
        <time>2019-04-17T22:59:53Z</time>
      </trkpt>
      <trkpt lat="51.219555614908" lon="4.471863008256">
        <ele>13.4</ele>
        <time>2019-04-17T23:00:00Z</time>
      </trkpt>
      <trkpt lat="51.219597524408" lon="4.471570563765">
        <ele>18.6</ele>
        <time>2019-04-17T23:00:08Z</time>
      </trkpt>
      <trkpt lat="51.219666591264" lon="4.471285327708">
        <ele>19.6</ele>
        <time>2019-04-17T23:00:16Z</time>
      </trkpt>
      <trkpt lat="51.21972476165" lon="4.471000678384">
        <ele>19.4</ele>
        <time>2019-04-17T23:00:23Z</time>
      </trkpt>
      <trkpt lat="51.219771113557" lon="4.470721142019">
        <ele>18.8</ele>
        <time>2019-04-17T23:00:30Z</time>
      </trkpt>
      <trkpt lat="51.219818303654" lon="4.470436744152">
        <ele>18.4</ele>
        <time>2019-04-17T23:00:37Z</time>
      </trkpt>
      <trkpt lat="51.219885861768" lon="4.470134744295">
        <ele>18.2</ele>
        <time>2019-04-17T23:00:45Z</time>
      </trkpt>
      <trkpt lat="51.219938164824" lon="4.469854956473">
        <ele>19.8</ele>
        <time>2019-04-17T23:00:52Z</time>
      </trkpt>
      <trkpt lat="51.219995999934" lon="4.469576342117">
        <ele>19.2</ele>
        <time>2019-04-17T23:00:59Z</time>
      </trkpt>
      <trkpt lat="51.220046291334" lon="4.469296889571">
        <ele>19</ele>
        <time>2019-04-17T23:01:06Z</time>
      </trkpt>
      <trkpt lat="51.220088200834" lon="4.469011402057">
        <ele>17.8</ele>
        <time>2019-04-17T23:01:13Z</time>
      </trkpt>
      <trkpt lat="51.220109407041" lon="4.468692889857">
        <ele>18.6</ele>
        <time>2019-04-17T23:01:21Z</time>
      </trkpt>
      <trkpt lat="51.220126338479" lon="4.468365492843">
        <ele>18</ele>
        <time>2019-04-17T23:01:29Z</time>
      </trkpt>
      <trkpt lat="51.220127428126" lon="4.468057458018">
        <ele>17.8</ele>
        <time>2019-04-17T23:01:36Z</time>
      </trkpt>
      <trkpt lat="51.220117956579" lon="4.467758978559">
        <ele>18.4</ele>
        <time>2019-04-17T23:01:43Z</time>
      </trkpt>
      <trkpt lat="51.220113095077" lon="4.467436023952">
        <ele>18.6</ele>
        <time>2019-04-17T23:01:51Z</time>
      </trkpt>
      <trkpt lat="51.22012793104" lon="4.467116254467">
        <ele>19</ele>
        <time>2019-04-17T23:01:59Z</time>
      </trkpt>
      <trkpt lat="51.220129188325" lon="4.466810231298">
        <ele>20.2</ele>
        <time>2019-04-17T23:02:07Z</time>
      </trkpt>
      <trkpt lat="51.220138743691" lon="4.466497167333">
        <ele>18.4</ele>
        <time>2019-04-17T23:02:15Z</time>
      </trkpt>
      <trkpt lat="51.220052242483" lon="4.465957456792">
        <ele>16.4</ele>
        <time>2019-04-17T23:02:29Z</time>
      </trkpt>
      <trkpt lat="51.220071437034" lon="4.465654534926">
        <ele>16.4</ele>
        <time>2019-04-17T23:02:36Z</time>
      </trkpt>
      <trkpt lat="51.220069090102" lon="4.465352032155">
        <ele>15.6</ele>
        <time>2019-04-17T23:02:43Z</time>
      </trkpt>
      <trkpt lat="51.220075208889" lon="4.465045086977">
        <ele>14</ele>
        <time>2019-04-17T23:02:50Z</time>
      </trkpt>
      <trkpt lat="51.220079567477" lon="4.46474979264">
        <ele>15.6</ele>
        <time>2019-04-17T23:02:57Z</time>
      </trkpt>
      <trkpt lat="51.220093146155" lon="4.464437902141">
        <ele>18.2</ele>
        <time>2019-04-17T23:03:05Z</time>
      </trkpt>
      <trkpt lat="51.220085602445" lon="4.464123580891">
        <ele>19.4</ele>
        <time>2019-04-17T23:03:13Z</time>
      </trkpt>
      <trkpt lat="51.220054086501" lon="4.463808840546">
        <ele>20.4</ele>
        <time>2019-04-17T23:03:21Z</time>
      </trkpt>
      <trkpt lat="51.219989462052" lon="4.463503571748">
        <ele>20.4</ele>
        <time>2019-04-17T23:03:29Z</time>
      </trkpt>
      <trkpt lat="51.219957107918" lon="4.46318405372">
        <ele>18.2</ele>
        <time>2019-04-17T23:03:37Z</time>
      </trkpt>
      <trkpt lat="51.219957275556" lon="4.462866128253">
        <ele>16.8</ele>
        <time>2019-04-17T23:03:45Z</time>
      </trkpt>
      <trkpt lat="51.219911594201" lon="4.4625654695">
        <ele>17.2</ele>
        <time>2019-04-17T23:03:53Z</time>
      </trkpt>
      <trkpt lat="51.219862308629" lon="4.46228802861">
        <ele>17</ele>
        <time>2019-04-17T23:04:00Z</time>
      </trkpt>
      <trkpt lat="51.219891645279" lon="4.461986866943">
        <ele>17.8</ele>
        <time>2019-04-17T23:04:07Z</time>
      </trkpt>
      <trkpt lat="51.219971776243" lon="4.461683106887">
        <ele>19.4</ele>
        <time>2019-04-17T23:04:14Z</time>
      </trkpt>
      <trkpt lat="51.22006087584" lon="4.461402313237">
        <ele>20</ele>
        <time>2019-04-17T23:04:21Z</time>
      </trkpt>
      <trkpt lat="51.220158860251" lon="4.461130907315">
        <ele>20.2</ele>
        <time>2019-04-17T23:04:28Z</time>
      </trkpt>
      <trkpt lat="51.220239745586" lon="4.460861764506">
        <ele>21.4</ele>
        <time>2019-04-17T23:04:35Z</time>
      </trkpt>
      <trkpt lat="51.220326665889" lon="4.460574265336">
        <ele>21.6</ele>
        <time>2019-04-17T23:04:43Z</time>
      </trkpt>
      <trkpt lat="51.220342088585" lon="4.460258267706">
        <ele>20.8</ele>
        <time>2019-04-17T23:04:51Z</time>
      </trkpt>
      <trkpt lat="51.22033077302" lon="4.45995115489">
        <ele>20.2</ele>
        <time>2019-04-17T23:04:59Z</time>
      </trkpt>
      <trkpt lat="51.220426661956" lon="4.459706571048">
        <ele>20.8</ele>
        <time>2019-04-17T23:05:06Z</time>
      </trkpt>
      <trkpt lat="51.220605783159" lon="4.459598863633">
        <ele>20.6</ele>
        <time>2019-04-17T23:05:13Z</time>
      </trkpt>
      <trkpt lat="51.220795465556" lon="4.459466261975">
        <ele>26</ele>
        <time>2019-04-17T23:05:21Z</time>
      </trkpt>
      <trkpt lat="51.220978861528" lon="4.459420245344">
        <ele>28.8</ele>
        <time>2019-04-17T23:05:28Z</time>
      </trkpt>
      <trkpt lat="51.221172986332" lon="4.459394680549">
        <ele>27.8</ele>
        <time>2019-04-17T23:05:35Z</time>
      </trkpt>
      <trkpt lat="51.22137683414" lon="4.459394848187">
        <ele>27.8</ele>
        <time>2019-04-17T23:05:43Z</time>
      </trkpt>
      <trkpt lat="51.221574982256" lon="4.459387136839">
        <ele>30</ele>
        <time>2019-04-17T23:05:51Z</time>
      </trkpt>
      <trkpt lat="51.221763910282" lon="4.459318908173">
        <ele>33.2</ele>
        <time>2019-04-17T23:05:59Z</time>
      </trkpt>
      <trkpt lat="51.221946719521" lon="4.459246320919">
        <ele>37.2</ele>
        <time>2019-04-17T23:06:07Z</time>
      </trkpt>
      <trkpt lat="51.222134054986" lon="4.459227964558">
        <ele>38.8</ele>
        <time>2019-04-17T23:06:14Z</time>
      </trkpt>
      <trkpt lat="51.222317618596" lon="4.459207177446">
        <ele>41</ele>
        <time>2019-04-17T23:06:21Z</time>
      </trkpt>
      <trkpt lat="51.222509480287" lon="4.459163843023">
        <ele>38.2</ele>
        <time>2019-04-17T23:06:28Z</time>
      </trkpt>
      <trkpt lat="51.222679129943" lon="4.459038114523">
        <ele>33.8</ele>
        <time>2019-04-17T23:06:35Z</time>
      </trkpt>
      <trkpt lat="51.222857412956" lon="4.45897214897">
        <ele>32.6</ele>
        <time>2019-04-17T23:06:42Z</time>
      </trkpt>
      <trkpt lat="51.223037204711" lon="4.458946500356">
        <ele>31</ele>
        <time>2019-04-17T23:06:50Z</time>
      </trkpt>
      <trkpt lat="51.223244153822" lon="4.458946248899">
        <ele>29.8</ele>
        <time>2019-04-17T23:06:58Z</time>
      </trkpt>
      <trkpt lat="51.223444565051" lon="4.459024535845">
        <ele>29.2</ele>
        <time>2019-04-17T23:07:06Z</time>
      </trkpt>
      <trkpt lat="51.223638019303" lon="4.459019255248">
        <ele>31.4</ele>
        <time>2019-04-17T23:07:13Z</time>
      </trkpt>
      <trkpt lat="51.223844130224" lon="4.459038114523">
        <ele>39.4</ele>
        <time>2019-04-17T23:07:21Z</time>
      </trkpt>
      <trkpt lat="51.224031968603" lon="4.459040126179">
        <ele>41.8</ele>
        <time>2019-04-17T23:07:28Z</time>
      </trkpt>
      <trkpt lat="51.224236067868" lon="4.459034510306">
        <ele>42.4</ele>
        <time>2019-04-17T23:07:35Z</time>
      </trkpt>
      <trkpt lat="51.224421307858" lon="4.459008358778">
        <ele>39.6</ele>
        <time>2019-04-17T23:07:42Z</time>
      </trkpt>
      <trkpt lat="51.224620377983" lon="4.458942728501">
        <ele>39.8</ele>
        <time>2019-04-17T23:07:50Z</time>
      </trkpt>
      <trkpt lat="51.224818526099" lon="4.45889335911">
        <ele>35.8</ele>
        <time>2019-04-17T23:07:58Z</time>
      </trkpt>
      <trkpt lat="51.224994210723" lon="4.458827896471">
        <ele>30.4</ele>
        <time>2019-04-17T23:08:05Z</time>
      </trkpt>
      <trkpt lat="51.225238459289" lon="4.45878858536">
        <ele>27.2</ele>
        <time>2019-04-17T23:08:14Z</time>
      </trkpt>
      <trkpt lat="51.225438032328" lon="4.458754973941">
        <ele>27</ele>
        <time>2019-04-17T23:08:22Z</time>
      </trkpt>
      <trkpt lat="51.225613381676" lon="4.458600076429">
        <ele>25</ele>
        <time>2019-04-17T23:08:29Z</time>
      </trkpt>
      <trkpt lat="51.225798370209" lon="4.458547941011">
        <ele>23</ele>
        <time>2019-04-17T23:08:38Z</time>
      </trkpt>
      <trkpt lat="51.225851595274" lon="4.458603093913">
        <ele>24.6</ele>
        <time>2019-04-17T23:08:42Z</time>
      </trkpt>
      <trkpt lat="51.225930552772" lon="4.458894532576">
        <ele>28.2</ele>
        <time>2019-04-17T23:08:51Z</time>
      </trkpt>
      <trkpt lat="51.226058292928" lon="4.459150096707">
        <ele>30</ele>
        <time>2019-04-17T23:08:58Z</time>
      </trkpt>
      <trkpt lat="51.226168514913" lon="4.459413623643">
        <ele>27.2</ele>
        <time>2019-04-17T23:09:06Z</time>
      </trkpt>
      <trkpt lat="51.226222326711" lon="4.459569694621">
        <ele>25</ele>
        <time>2019-04-17T23:09:11Z</time>
      </trkpt>
      <trkpt lat="51.226418127895" lon="4.459524851456">
        <ele>30.2</ele>
        <time>2019-04-17T23:09:19Z</time>
      </trkpt>
      <trkpt lat="51.226594063976" lon="4.459422005543">
        <ele>31.2</ele>
        <time>2019-04-17T23:09:26Z</time>
      </trkpt>
      <trkpt lat="51.226767150211" lon="4.459313543757">
        <ele>32</ele>
        <time>2019-04-17T23:09:33Z</time>
      </trkpt>
      <trkpt lat="51.226958006074" lon="4.459258390855">
        <ele>29.6</ele>
        <time>2019-04-17T23:09:40Z</time>
      </trkpt>
      <trkpt lat="51.227128410101" lon="4.459164178299">
        <ele>28.6</ele>
        <time>2019-04-17T23:09:47Z</time>
      </trkpt>
      <trkpt lat="51.227304430001" lon="4.459036521962">
        <ele>28.4</ele>
        <time>2019-04-17T23:09:55Z</time>
      </trkpt>
      <trkpt lat="51.227485898136" lon="4.458909619996">
        <ele>28.2</ele>
        <time>2019-04-17T23:10:02Z</time>
      </trkpt>
      <trkpt lat="51.227652697946" lon="4.458782215116">
        <ele>26.6</ele>
        <time>2019-04-17T23:10:09Z</time>
      </trkpt>
      <trkpt lat="51.227818575747" lon="4.458666461077">
        <ele>25.8</ele>
        <time>2019-04-17T23:10:16Z</time>
      </trkpt>
      <trkpt lat="51.227997194036" lon="4.458549114477">
        <ele>23.4</ele>
        <time>2019-04-17T23:10:24Z</time>
      </trkpt>
      <trkpt lat="51.228168520072" lon="4.458449788962">
        <ele>23.2</ele>
        <time>2019-04-17T23:10:31Z</time>
      </trkpt>
      <trkpt lat="51.228347976551" lon="4.458344260841">
        <ele>25.8</ele>
        <time>2019-04-17T23:10:39Z</time>
      </trkpt>
      <trkpt lat="51.22852240389" lon="4.458257591995">
        <ele>29.4</ele>
        <time>2019-04-17T23:10:47Z</time>
      </trkpt>
      <trkpt lat="51.228718875626" lon="4.458188860415">
        <ele>28.2</ele>
        <time>2019-04-17T23:10:55Z</time>
      </trkpt>
      <trkpt lat="51.228910737317" lon="4.458122643405">
        <ele>26.4</ele>
        <time>2019-04-17T23:11:04Z</time>
      </trkpt>
      <trkpt lat="51.229105448854" lon="4.458073525471">
        <ele>25.6</ele>
        <time>2019-04-17T23:11:12Z</time>
      </trkpt>
      <trkpt lat="51.229306279178" lon="4.458016109456">
        <ele>22</ele>
        <time>2019-04-17T23:11:20Z</time>
      </trkpt>
      <trkpt lat="51.229494369014" lon="4.457961878563">
        <ele>20.4</ele>
        <time>2019-04-17T23:11:27Z</time>
      </trkpt>
      <trkpt lat="51.229682794126" lon="4.457917454493">
        <ele>21</ele>
        <time>2019-04-17T23:11:35Z</time>
      </trkpt>
      <trkpt lat="51.229876499835" lon="4.457879400667">
        <ele>26.2</ele>
        <time>2019-04-17T23:11:43Z</time>
      </trkpt>
      <trkpt lat="51.230071127553" lon="4.457827600525">
        <ele>26</ele>
        <time>2019-04-17T23:11:51Z</time>
      </trkpt>
      <trkpt lat="51.230251925136" lon="4.457773034356">
        <ele>26.8</ele>
        <time>2019-04-17T23:11:58Z</time>
      </trkpt>
      <trkpt lat="51.230431297796" lon="4.457721485671">
        <ele>27.2</ele>
        <time>2019-04-17T23:12:05Z</time>
      </trkpt>
      <trkpt lat="51.230577729589" lon="4.45769307103">
        <ele>26.8</ele>
        <time>2019-04-17T23:12:14Z</time>
      </trkpt>
      <trkpt lat="51.230383437147" lon="4.457737327462">
        <ele>30.8</ele>
        <time>2019-04-17T23:12:23Z</time>
      </trkpt>
      <trkpt lat="51.230201214641" lon="4.457802371006">
        <ele>36.2</ele>
        <time>2019-04-17T23:12:30Z</time>
      </trkpt>
      <trkpt lat="51.230012873348" lon="4.457844867239">
        <ele>39.2</ele>
        <time>2019-04-17T23:12:38Z</time>
      </trkpt>
      <trkpt lat="51.229832327222" lon="4.457972775033">
        <ele>31</ele>
        <time>2019-04-17T23:12:46Z</time>
      </trkpt>
      <trkpt lat="51.229661839376" lon="4.45806941834">
        <ele>26.6</ele>
        <time>2019-04-17T23:12:55Z</time>
      </trkpt>
      <trkpt lat="51.229466038192" lon="4.458110238193">
        <ele>25.4</ele>
        <time>2019-04-17T23:13:02Z</time>
      </trkpt>
      <trkpt lat="51.229276188157" lon="4.458161703059">
        <ele>25.4</ele>
        <time>2019-04-17T23:13:09Z</time>
      </trkpt>
      <trkpt lat="51.229103437198" lon="4.458173102443">
        <ele>26</ele>
        <time>2019-04-17T23:13:18Z</time>
      </trkpt>
      <trkpt lat="51.229284234781" lon="4.458126247622">
        <ele>29.4</ele>
        <time>2019-04-17T23:13:28Z</time>
      </trkpt>
      <trkpt lat="51.229472743712" lon="4.458078051697">
        <ele>29.4</ele>
        <time>2019-04-17T23:13:36Z</time>
      </trkpt>
      <trkpt lat="51.229650356173" lon="4.458012589058">
        <ele>27.4</ele>
        <time>2019-04-17T23:13:45Z</time>
      </trkpt>
      <trkpt lat="51.22984674409" lon="4.457945701496">
        <ele>25</ele>
        <time>2019-04-17T23:13:53Z</time>
      </trkpt>
      <trkpt lat="51.230043634921" lon="4.457865067618">
        <ele>22.2</ele>
        <time>2019-04-17T23:14:01Z</time>
      </trkpt>
      <trkpt lat="51.230238933191" lon="4.457771106519">
        <ele>20</ele>
        <time>2019-04-17T23:14:09Z</time>
      </trkpt>
      <trkpt lat="51.230344461312" lon="4.45776599356">
        <ele>26.2</ele>
        <time>2019-04-17T23:14:17Z</time>
      </trkpt>
      <trkpt lat="51.230203645392" lon="4.457772866718">
        <ele>33.8</ele>
        <time>2019-04-17T23:14:23Z</time>
      </trkpt>
    </trkseg>
  </trk>
</gpx>